Time;durP1;ratioP1;P1;durP2;ratioP2;P2;SDS_P1;SDS_P2;PMS_P1;PMS_P2;Temp;Humidity;BMP_temperature;BMP_pressure;BME280_temperature;BME280_humidity;BME280_pressure;Samples;Min_cycle;Max_cycle;Signal;HPM_P1;HPM_P2
2023/04/19 00:01:00;;;;;;;21.15;15.93;;;10.10;99.90;;;;;;7296045;32;20127;-54
2023/04/19 00:05:02;;;;;;;18.92;15.40;;;10.10;99.90;;;;;;7299504;32;20112;-55
2023/04/19 00:09:04;;;;;;;19.08;15.35;;;10.00;99.90;;;;;;7295304;32;20119;-55
2023/04/19 00:13:05;;;;;;;18.62;15.85;;;10.00;99.90;;;;;;7297714;32;20541;-55
2023/04/19 00:17:07;;;;;;;19.90;15.52;;;10.10;99.90;;;;;;7296299;32;20116;-55
2023/04/19 00:21:10;;;;;;;19.85;15.35;;;10.10;99.90;;;;;;7305746;32;20170;-55
2023/04/19 00:25:12;;;;;;;19.55;15.07;;;10.20;99.90;;;;;;7309589;32;20166;-55
2023/04/19 00:29:14;;;;;;;20.83;15.35;;;10.10;99.90;;;;;;7299475;32;20563;-55
2023/04/19 00:33:15;;;;;;;20.58;15.20;;;10.10;99.90;;;;;;7300583;32;20159;-56
2023/04/19 00:37:17;;;;;;;19.20;14.80;;;10.10;99.90;;;;;;7292949;32;20219;-55
2023/04/19 00:41:19;;;;;;;19.37;15.95;;;10.10;99.90;;;;;;7294507;32;20226;-55
2023/04/19 00:45:21;;;;;;;20.45;16.15;;;10.10;99.90;;;;;;7301853;32;20302;-55
2023/04/19 00:49:23;;;;;;;19.52;15.73;;;10.20;99.90;;;;;;7300136;32;20136;-55
2023/04/19 00:53:25;;;;;;;20.20;15.48;;;10.10;99.90;;;;;;7301777;32;20241;-55
2023/04/19 00:57:28;;;;;;;20.33;16.52;;;10.20;99.90;;;;;;7299412;32;20138;-54
2023/04/19 01:01:30;;;;;;;19.17;16.52;;;10.10;99.90;;;;;;7295894;32;20192;-54
2023/04/19 01:05:32;;;;;;;21.80;15.32;;;10.10;99.90;;;;;;7297897;32;20878;-54
2023/04/19 01:09:33;;;;;;;19.92;16.08;;;10.20;99.90;;;;;;7293202;32;21728;-54
2023/04/19 01:13:35;;;;;;;21.98;16.15;;;10.20;99.90;;;;;;7297506;32;21169;-54
2023/04/19 01:17:37;;;;;;;24.10;16.12;;;10.20;99.90;;;;;;7295204;32;20495;-54
2023/04/19 01:21:41;;;;;;;22.60;16.92;;;10.20;99.90;;;;;;7305298;32;20624;-54
2023/04/19 01:25:43;;;;;;;24.80;16.35;;;10.40;99.90;;;;;;7310164;32;20131;-54
2023/04/19 01:29:45;;;;;;;21.87;16.95;;;10.30;99.90;;;;;;7297816;32;20135;-54
2023/04/19 01:33:46;;;;;;;21.27;16.67;;;10.30;99.90;;;;;;7293344;32;20965;-54
2023/04/19 01:37:49;;;;;;;22.60;17.08;;;10.40;99.90;;;;;;7292622;32;20109;-54
2023/04/19 01:41:51;;;;;;;22.10;16.52;;;10.30;99.90;;;;;;7296760;32;20510;-54
2023/04/19 01:45:52;;;;;;;26.52;17.33;;;10.30;99.90;;;;;;7290233;32;20740;-53
2023/04/19 01:49:54;;;;;;;23.80;18.25;;;10.40;99.90;;;;;;7296362;32;22278;-54
2023/04/19 01:53:57;;;;;;;25.15;17.55;;;10.20;99.90;;;;;;7311399;32;20743;-54
2023/04/19 01:57:58;;;;;;;22.62;17.40;;;10.30;99.90;;;;;;7298234;32;20112;-54
2023/04/19 02:02:00;;;;;;;20.52;17.25;;;10.30;99.90;;;;;;7299483;32;20214;-54
2023/04/19 02:06:02;;;;;;;21.92;17.98;;;10.20;99.90;;;;;;7296873;32;20107;-57
2023/04/19 02:10:04;;;;;;;20.90;16.60;;;10.20;99.90;;;;;;7295744;32;20104;-54
2023/04/19 02:14:06;;;;;;;22.15;17.42;;;10.20;99.90;;;;;;7295078;32;20234;-55
2023/04/19 02:18:08;;;;;;;24.25;17.23;;;10.00;99.90;;;;;;7294789;32;20261;-54
2023/04/19 02:22:10;;;;;;;20.42;17.30;;;9.90;99.90;;;;;;7301951;32;20197;-54
2023/04/19 02:26:12;;;;;;;22.58;17.40;;;9.80;99.90;;;;;;7306367;32;20225;-55
2023/04/19 02:30:13;;;;;;;20.25;17.20;;;9.70;99.90;;;;;;7288804;32;20577;-54
2023/04/19 02:34:15;;;;;;;20.25;17.35;;;9.60;99.90;;;;;;7302213;32;20955;-55
2023/04/19 02:38:17;;;;;;;22.00;17.37;;;9.40;99.90;;;;;;7302657;32;20124;-56
2023/04/19 02:42:19;;;;;;;21.75;17.02;;;9.20;99.90;;;;;;7304686;32;20171;-54
2023/04/19 02:46:21;;;;;;;21.37;15.55;;;9.20;99.90;;;;;;7302662;32;20259;-56
2023/04/19 02:50:22;;;;;;;18.17;15.23;;;9.10;99.90;;;;;;7300687;32;20241;-56
2023/04/19 02:54:24;;;;;;;20.17;15.45;;;8.90;99.90;;;;;;7301106;32;20123;-55
2023/04/19 02:58:26;;;;;;;18.98;16.05;;;8.80;99.90;;;;;;7304134;32;20336;-56
2023/04/19 03:02:28;;;;;;;23.50;16.40;;;8.70;99.90;;;;;;7308054;32;20141;-55
2023/04/19 03:06:29;;;;;;;24.42;15.63;;;8.70;99.90;;;;;;7311749;32;20226;-55
2023/04/19 03:10:31;;;;;;;20.10;15.60;;;8.50;99.90;;;;;;7310515;32;20868;-55
2023/04/19 03:14:33;;;;;;;20.58;15.80;;;8.40;99.90;;;;;;7310857;32;20479;-55
2023/04/19 03:18:35;;;;;;;23.02;17.45;;;8.40;99.90;;;;;;7308772;32;20574;-55
2023/04/19 03:22:37;;;;;;;25.58;17.87;;;8.30;99.90;;;;;;7304317;32;20497;-56
2023/04/19 03:26:39;;;;;;;27.60;18.08;;;8.30;99.90;;;;;;7306488;32;20135;-55
2023/04/19 03:30:41;;;;;;;19.98;15.43;;;8.30;99.90;;;;;;7305002;32;20332;-55
2023/04/19 03:34:42;;;;;;;20.30;14.95;;;8.40;99.90;;;;;;7312732;32;20686;-55
2023/04/19 03:38:44;;;;;;;18.62;13.85;;;8.50;99.90;;;;;;7308259;32;20158;-55
2023/04/19 03:42:46;;;;;;;15.90;12.40;;;8.50;99.90;;;;;;7315880;32;20100;-55
2023/04/19 03:46:48;;;;;;;18.62;11.25;;;8.70;99.90;;;;;;7306951;32;20520;-55
2023/04/19 03:50:49;;;;;;;14.00;10.43;;;8.80;99.90;;;;;;7309086;32;20107;-55
2023/04/19 03:54:51;;;;;;;10.88;9.27;;;9.10;99.90;;;;;;7313595;32;20115;-55
2023/04/19 03:58:53;;;;;;;13.57;8.63;;;9.10;99.90;;;;;;7307413;32;20790;-56
2023/04/19 04:02:55;;;;;;;11.45;8.07;;;9.20;99.90;;;;;;7301697;32;20257;-55
2023/04/19 04:06:57;;;;;;;8.95;7.07;;;9.30;99.90;;;;;;7305888;32;20340;-56
2023/04/19 04:10:58;;;;;;;11.18;7.32;;;9.40;99.90;;;;;;7307785;32;20526;-55
2023/04/19 04:15:00;;;;;;;9.82;6.78;;;9.50;99.90;;;;;;7319276;32;20133;-55
2023/04/19 04:19:02;;;;;;;8.60;6.25;;;9.60;99.90;;;;;;7307287;32;20112;-55
2023/04/19 04:23:04;;;;;;;10.43;6.10;;;9.60;99.90;;;;;;7307806;32;20131;-56
2023/04/19 04:27:08;;;;;;;7.97;5.72;;;9.60;99.90;;;;;;7306366;32;20212;-56
2023/04/19 04:31:11;;;;;;;8.32;5.90;;;9.70;99.90;;;;;;7308510;32;20250;-55
2023/04/19 04:35:13;;;;;;;9.35;6.37;;;9.70;99.90;;;;;;7303642;32;20223;-56
2023/04/19 04:39:15;;;;;;;9.55;5.68;;;9.80;99.90;;;;;;7299293;32;20204;-55
2023/04/19 04:43:17;;;;;;;11.00;5.90;;;9.70;99.90;;;;;;7304386;32;20145;-54
2023/04/19 04:47:20;;;;;;;9.88;5.93;;;9.70;99.90;;;;;;7302537;32;20140;-56
2023/04/19 04:51:21;;;;;;;5.78;5.07;;;9.70;99.90;;;;;;7299730;32;20104;-56
2023/04/19 04:55:23;;;;;;;7.12;5.35;;;9.60;99.90;;;;;;7301421;32;20123;-56
2023/04/19 04:59:25;;;;;;;9.05;5.82;;;9.70;99.90;;;;;;7305166;32;20537;-56
2023/04/19 05:03:27;;;;;;;10.88;6.95;;;9.60;99.90;;;;;;7303677;32;20175;-56
2023/04/19 05:07:29;;;;;;;6.95;4.97;;;9.50;99.90;;;;;;7304883;32;20128;-56
2023/04/19 05:11:31;;;;;;;13.43;5.95;;;9.40;99.90;;;;;;7310046;32;20156;-56
2023/04/19 05:15:32;;;;;;;6.70;5.10;;;9.40;99.90;;;;;;7305830;32;20159;-56
2023/04/19 05:19:34;;;;;;;7.82;5.32;;;9.30;99.90;;;;;;7303724;32;20107;-56
2023/04/19 05:23:38;;;;;;;7.78;4.85;;;9.20;99.90;;;;;;7307026;32;20214;-57
2023/04/19 05:27:40;;;;;;;9.77;5.43;;;9.20;99.90;;;;;;7309210;32;20582;-55
2023/04/19 05:31:42;;;;;;;11.73;5.22;;;9.10;99.90;;;;;;7302968;32;20286;-56
2023/04/19 05:35:44;;;;;;;6.70;5.00;;;9.10;99.90;;;;;;7302084;32;20116;-56
2023/04/19 05:39:45;;;;;;;7.65;4.72;;;9.10;99.90;;;;;;7307348;32;20155;-57
2023/04/19 05:43:47;;;;;;;6.97;5.00;;;9.00;99.90;;;;;;7308729;32;20111;-56
2023/04/19 05:47:49;;;;;;;7.72;4.90;;;9.10;99.90;;;;;;7304926;32;20258;-57
2023/04/19 05:51:51;;;;;;;8.25;5.47;;;9.10;99.90;;;;;;7300691;32;20152;-57
2023/04/19 05:55:53;;;;;;;7.12;5.32;;;9.00;99.90;;;;;;7311066;32;20587;-56
2023/04/19 05:59:55;;;;;;;9.43;7.22;;;9.00;99.90;;;;;;7306679;32;20129;-57
2023/04/19 06:03:56;;;;;;;7.75;5.37;;;9.10;99.90;;;;;;7301604;32;20232;-57
2023/04/19 06:07:59;;;;;;;8.43;5.68;;;9.10;99.90;;;;;;7303176;32;20140;-58
2023/04/19 06:12:04;;;;;;;7.55;5.57;;;9.10;99.90;;;;;;7305765;32;20329;-56
2023/04/19 06:16:06;;;;;;;7.65;5.82;;;9.10;99.90;;;;;;7301014;32;20234;-56
2023/04/19 06:20:09;;;;;;;8.68;5.75;;;9.00;99.90;;;;;;7300258;32;20111;-56
2023/04/19 06:24:10;;;;;;;11.12;6.50;;;8.90;99.90;;;;;;7299796;32;20631;-56
2023/04/19 06:28:12;;;;;;;10.50;6.03;;;9.00;99.90;;;;;;7297831;32;20231;-56
2023/04/19 06:32:14;;;;;;;7.80;5.25;;;8.90;99.90;;;;;;7302447;32;20180;-57
2023/04/19 06:36:16;;;;;;;8.88;6.18;;;8.90;99.90;;;;;;7304624;32;20232;-57
2023/04/19 06:40:17;;;;;;;10.38;6.45;;;8.90;99.90;;;;;;7309919;32;20112;-56
2023/04/19 06:44:19;;;;;;;9.57;6.37;;;9.00;99.90;;;;;;7310205;32;20597;-57
2023/04/19 06:48:21;;;;;;;9.43;6.28;;;9.10;99.90;;;;;;7314141;32;20813;-57
2023/04/19 06:52:23;;;;;;;9.40;6.12;;;9.10;99.90;;;;;;7306431;32;20476;-56
2023/04/19 06:56:44;;;;;;;12.32;6.40;;;9.30;99.90;;;;;;7306754;32;20265;-57
2023/04/19 07:00:46;;;;;;;7.57;6.00;;;9.30;99.90;;;;;;7303058;32;20112;-57
2023/04/19 07:04:47;;;;;;;7.95;6.07;;;9.40;99.90;;;;;;7303359;32;20116;-56
2023/04/19 07:08:49;;;;;;;10.52;6.78;;;9.50;99.90;;;;;;7303653;32;20232;-57
2023/04/19 07:12:51;;;;;;;8.30;5.78;;;9.50;99.90;;;;;;7315226;32;20165;-56
2023/04/19 07:16:53;;;;;;;9.15;6.50;;;9.70;99.90;;;;;;7310985;32;20258;-57
2023/04/19 07:20:54;;;;;;;9.35;6.20;;;10.00;99.90;;;;;;7312360;32;20316;-57
2023/04/19 07:24:56;;;;;;;8.10;5.95;;;10.20;99.90;;;;;;7310644;32;20214;-57
2023/04/19 07:28:59;;;;;;;10.02;5.53;;;10.30;99.90;;;;;;7306037;32;20166;-57
2023/04/19 07:33:03;;;;;;;9.48;5.60;;;10.50;99.90;;;;;;7308958;32;20280;-57
2023/04/19 07:37:05;;;;;;;10.35;5.45;;;10.60;99.90;;;;;;7302746;32;20116;-56
2023/04/19 07:41:07;;;;;;;8.15;5.32;;;10.70;99.90;;;;;;7302972;32;20260;-56
2023/04/19 07:45:09;;;;;;;8.63;5.47;;;10.80;99.90;;;;;;7301540;32;20197;-56
2023/04/19 07:49:12;;;;;;;11.85;5.30;;;11.20;99.90;;;;;;7301973;32;20836;-56
2023/04/19 07:53:14;;;;;;;10.43;4.62;;;11.00;99.90;;;;;;7311947;32;20149;-57
2023/04/19 07:57:16;;;;;;;10.98;4.45;;;11.20;99.90;;;;;;7301991;32;20143;-57
2023/04/19 08:01:17;;;;;;;8.82;4.80;;;11.40;99.90;;;;;;7305768;32;20138;-58
2023/04/19 08:05:19;;;;;;;6.93;4.15;;;11.40;99.90;;;;;;7306148;32;20529;-57
2023/04/19 08:09:21;;;;;;;8.48;4.40;;;11.30;99.90;;;;;;7301598;32;20249;-57
2023/04/19 08:13:23;;;;;;;6.75;4.35;;;11.20;99.90;;;;;;7303770;32;20147;-57
2023/04/19 08:17:26;;;;;;;8.48;4.80;;;11.20;99.90;;;;;;7314012;32;20157;-58
2023/04/19 08:21:37;;;;;;;8.93;3.72;;;11.40;99.90;;;;;;7309028;32;20119;-58
2023/04/19 08:25:42;;;;;;;7.20;3.87;;;11.70;99.90;;;;;;7301578;32;20112;-57
2023/04/19 08:29:44;;;;;;;7.05;3.83;;;11.40;99.90;;;;;;7303741;32;20107;-57
2023/04/19 08:33:46;;;;;;;6.35;3.83;;;11.70;99.90;;;;;;7308003;32;20325;-57
2023/04/19 08:37:48;;;;;;;6.82;3.53;;;11.70;99.90;;;;;;7310076;32;20184;-57
2023/04/19 08:41:50;;;;;;;5.62;3.30;;;11.50;99.90;;;;;;7305117;32;20270;-58
2023/04/19 08:46:07;;;;;;;7.20;3.15;;;11.80;99.90;;;;;;7305349;32;20238;-58
2023/04/19 08:50:09;;;;;;;6.18;3.03;;;11.60;99.90;;;;;;7305029;32;20119;-57
2023/04/19 08:54:29;;;;;;;5.12;3.10;;;11.50;99.90;;;;;;7299700;32;20143;-56
2023/04/19 08:58:32;;;;;;;6.37;3.28;;;11.70;99.90;;;;;;7310097;32;21820;-56
2023/04/19 09:02:54;;;;;;;6.90;3.03;;;11.90;99.90;;;;;;7313622;32;20135;-56
2023/04/19 09:06:56;;;;;;;4.05;2.75;;;12.30;99.90;;;;;;7301032;32;20137;-57
2023/04/19 09:11:00;;;;;;;7.72;3.25;;;12.70;99.80;;;;;;7309470;32;20131;-56
2023/04/19 09:15:03;;;;;;;9.48;3.20;;;13.40;96.70;;;;;;7301504;32;20107;-57
2023/04/19 09:19:07;;;;;;;5.30;3.35;;;13.50;95.70;;;;;;7313911;32;20130;-57
2023/04/19 09:23:26;;;;;;;9.95;3.40;;;13.60;95.70;;;;;;7303387;32;20177;-57
2023/04/19 09:27:32;;;;;;;5.40;3.37;;;14.00;93.30;;;;;;7306479;32;20138;-56
2023/04/19 09:31:36;;;;;;;7.85;2.97;;;13.70;93.70;;;;;;7294999;32;20108;-57
2023/04/19 09:35:52;;;;;;;4.85;2.50;;;13.10;92.40;;;;;;7298471;32;20173;-57
2023/04/19 09:39:54;;;;;;;5.15;2.80;;;13.80;91.90;;;;;;7304122;32;20173;-59
2023/04/19 09:44:09;;;;;;;5.78;2.70;;;13.80;90.80;;;;;;7310120;32;20133;-57
2023/04/19 09:48:31;;;;;;;6.18;3.00;;;13.70;89.90;;;;;;7308274;32;20526;-57
2023/04/19 09:52:33;;;;;;;5.85;2.37;;;13.80;90.50;;;;;;7302939;32;20586;-57
2023/04/19 09:56:36;;;;;;;5.35;2.28;;;15.20;91.30;;;;;;7299627;32;20781;-56
2023/04/19 10:00:40;;;;;;;3.42;1.62;;;15.20;81.00;;;;;;7298394;32;20130;-56
2023/04/19 10:04:55;;;;;;;5.90;1.92;;;14.60;79.20;;;;;;7306233;32;20263;-56
2023/04/19 10:09:23;;;;;;;3.10;1.60;;;15.00;79.50;;;;;;7297038;32;20647;-58
2023/04/19 10:13:25;;;;;;;2.70;1.80;;;14.60;76.00;;;;;;7302276;32;20104;-57
2023/04/19 10:17:27;;;;;;;3.08;1.48;;;14.70;75.30;;;;;;7313838;32;20120;-57
2023/04/19 10:21:30;;;;;;;3.70;1.50;;;15.70;72.90;;;;;;7313692;32;20160;-56
2023/04/19 10:25:35;;;;;;;2.87;1.33;;;15.10;63.80;;;;;;7301432;32;20183;-56
2023/04/19 10:30:04;;;;;;;3.87;1.55;;;14.70;65.20;;;;;;7307970;32;20211;-57
2023/04/19 10:34:11;;;;;;;5.05;1.62;;;14.50;67.70;;;;;;7310575;32;20226;-56
2023/04/19 10:38:15;;;;;;;2.20;1.40;;;15.50;64.80;;;;;;7303166;32;20134;-57
2023/04/19 10:42:17;;;;;;;2.92;1.83;;;15.70;65.30;;;;;;7309459;32;20667;-56
2023/04/19 10:46:23;;;;;;;2.30;1.50;;;14.80;63.60;;;;;;7306654;32;20717;-56
2023/04/19 10:50:25;;;;;;;2.33;1.50;;;15.00;63.40;;;;;;7302839;32;20475;-57
2023/04/19 10:54:29;;;;;;;3.28;2.00;;;14.30;61.20;;;;;;7308737;32;20133;-56
2023/04/19 10:58:51;;;;;;;3.33;1.90;;;14.00;62.80;;;;;;7307988;32;20130;-57
2023/04/19 11:02:53;;;;;;;3.12;1.73;;;14.00;63.70;;;;;;7305345;32;20146;-57
2023/04/19 11:06:55;;;;;;;5.57;1.70;;;14.00;65.50;;;;;;7310759;32;20215;-57
2023/04/19 11:10:57;;;;;;;6.18;1.92;;;13.90;63.60;;;;;;7302755;32;20493;-57
2023/04/19 11:14:59;;;;;;;5.25;2.15;;;14.10;63.80;;;;;;7302148;32;20171;-56
2023/04/19 11:19:01;;;;;;;3.50;2.00;;;14.10;64.30;;;;;;7311792;32;20496;-56
2023/04/19 11:23:03;;;;;;;3.58;1.92;;;14.60;67.60;;;;;;7308994;32;20092;-56
2023/04/19 11:27:08;;;;;;;3.95;2.05;;;14.80;64.20;;;;;;7311595;32;20172;-57
2023/04/19 11:31:10;;;;;;;3.78;1.90;;;14.60;62.50;;;;;;7311494;32;20658;-55
2023/04/19 11:35:11;;;;;;;4.43;2.17;;;15.30;63.30;;;;;;7305990;32;20107;-56
2023/04/19 11:39:13;;;;;;;3.42;2.10;;;15.00;61.00;;;;;;7305685;32;20559;-56
2023/04/19 11:43:15;;;;;;;6.87;1.98;;;15.50;61.40;;;;;;7308357;32;20472;-56
2023/04/19 11:47:18;;;;;;;3.08;2.00;;;16.40;60.60;;;;;;7303885;32;20221;-56
2023/04/19 11:51:20;;;;;;;4.05;1.87;;;16.40;58.30;;;;;;7302241;32;20116;-56
2023/04/19 11:55:22;;;;;;;3.97;1.65;;;16.70;57.10;;;;;;7306794;32;20132;-56
2023/04/19 11:59:24;;;;;;;10.10;2.15;;;17.30;56.40;;;;;;7311043;32;20210;-56
2023/04/19 12:03:26;;;;;;;4.28;2.05;;;17.80;53.70;;;;;;7306702;32;20137;-56
2023/04/19 12:07:28;;;;;;;3.67;2.00;;;18.30;50.70;;;;;;7304736;32;20275;-59
2023/04/19 12:11:50;;;;;;;4.70;2.22;;;17.50;52.00;;;;;;7304410;32;20130;-56
2023/04/19 12:15:52;;;;;;;6.22;2.35;;;17.70;52.70;;;;;;7308990;32;20187;-56
2023/04/19 12:19:54;;;;;;;2.97;2.22;;;16.90;53.10;;;;;;7294489;32;20267;-62
2023/04/19 12:23:57;;;;;;;8.57;2.47;;;17.50;54.60;;;;;;7307231;32;20199;-62
2023/04/19 12:28:00;;;;;;;4.70;2.20;;;19.40;52.20;;;;;;7310907;32;20521;-61
2023/04/19 12:32:02;;;;;;;3.53;2.37;;;18.90;49.00;;;;;;7308765;32;20120;-62
2023/04/19 12:36:04;;;;;;;5.20;2.55;;;18.30;49.80;;;;;;7301617;32;20591;-62
2023/04/19 12:40:06;;;;;;;7.72;2.97;;;18.00;50.30;;;;;;7305238;32;20162;-62
2023/04/19 12:44:08;;;;;;;6.18;2.92;;;18.70;51.60;;;;;;7308757;32;20161;-62
2023/04/19 12:48:10;;;;;;;5.32;2.72;;;20.20;47.90;;;;;;7306957;32;20136;-61
2023/04/19 12:52:12;;;;;;;4.37;2.50;;;18.90;49.20;;;;;;7301036;32;20116;-62
2023/04/19 12:56:14;;;;;;;4.32;3.03;;;17.60;51.50;;;;;;7302041;32;20165;-56
2023/04/19 13:00:16;;;;;;;5.30;2.72;;;18.20;50.90;;;;;;7299015;32;20124;-57
2023/04/19 13:04:18;;;;;;;6.10;3.35;;;18.50;49.80;;;;;;7313899;32;20126;-56
2023/04/19 13:08:20;;;;;;;7.47;3.53;;;18.30;49.80;;;;;;7309282;32;20253;-57
2023/04/19 13:12:42;;;;;;;4.55;3.12;;;19.20;51.40;;;;;;7305533;32;20548;-57
2023/04/19 13:16:43;;;;;;;6.55;3.22;;;18.60;50.30;;;;;;7300674;32;20128;-56
2023/04/19 13:20:45;;;;;;;6.62;3.78;;;18.00;52.70;;;;;;7303163;32;20238;-57
2023/04/19 13:24:47;;;;;;;4.87;3.90;;;16.70;52.80;;;;;;7305340;32;20704;-57
2023/04/19 13:28:49;;;;;;;7.05;3.92;;;17.50;54.70;;;;;;7305730;32;20142;-56
2023/04/19 13:32:51;;;;;;;6.97;3.40;;;17.90;53.10;;;;;;7305086;32;20111;-56
2023/04/19 13:36:52;;;;;;;6.90;3.58;;;17.30;51.60;;;;;;7304259;32;20111;-57
2023/04/19 13:40:55;;;;;;;6.28;3.53;;;17.40;52.40;;;;;;7303688;32;20187;-56
2023/04/19 13:44:56;;;;;;;8.13;4.37;;;17.50;51.30;;;;;;7302892;32;20100;-57
2023/04/19 13:48:58;;;;;;;6.68;3.35;;;17.80;50.90;;;;;;7306936;32;20295;-56
2023/04/19 13:53:00;;;;;;;5.53;3.12;;;17.80;51.30;;;;;;7298587;32;20135;-57
2023/04/19 13:57:01;;;;;;;6.80;3.60;;;18.60;50.40;;;;;;7299300;32;21063;-56
2023/04/19 14:01:03;;;;;;;5.05;3.67;;;18.30;49.50;;;;;;7302091;32;20280;-57
2023/04/19 14:05:05;;;;;;;6.50;4.20;;;18.50;50.40;;;;;;7302086;32;20120;-57
2023/04/19 14:09:07;;;;;;;4.82;3.35;;;18.80;48.10;;;;;;7303558;32;20855;-59
2023/04/19 14:13:09;;;;;;;5.62;3.47;;;20.10;49.10;;;;;;7306204;32;20768;-58
2023/04/19 14:17:11;;;;;;;4.87;2.97;;;19.30;46.30;;;;;;7297744;32;20126;-58
2023/04/19 14:21:12;;;;;;;5.85;3.28;;;19.60;47.80;;;;;;7301283;32;20145;-58
2023/04/19 14:25:15;;;;;;;11.43;3.20;;;18.50;47.00;;;;;;7308112;32;20570;-59
2023/04/19 14:29:17;;;;;;;5.85;2.83;;;18.30;50.10;;;;;;7297035;32;20399;-59
2023/04/19 14:33:19;;;;;;;3.72;2.60;;;18.10;48.80;;;;;;7301037;32;20127;-58
2023/04/19 14:37:22;;;;;;;8.07;2.90;;;18.40;48.60;;;;;;7301029;32;20150;-58
2023/04/19 14:41:24;;;;;;;4.70;3.03;;;17.70;47.50;;;;;;7304363;32;20231;-59
2023/04/19 14:45:26;;;;;;;4.37;2.20;;;16.40;49.20;;;;;;7302328;32;20198;-59
2023/04/19 14:49:28;;;;;;;3.95;2.78;;;16.70;50.30;;;;;;7297268;32;20266;-58
2023/04/19 14:53:30;;;;;;;5.45;2.65;;;16.60;49.80;;;;;;7301294;32;20207;-60
2023/04/19 14:57:34;;;;;;;2.80;1.87;;;16.40;49.60;;;;;;7308455;32;20243;-58
2023/04/19 15:01:36;;;;;;;4.07;2.20;;;16.30;50.80;;;;;;7306238;32;20100;-58
2023/04/19 15:05:38;;;;;;;6.75;2.50;;;15.70;50.90;;;;;;7322291;32;20313;-58
2023/04/19 15:09:40;;;;;;;4.15;2.28;;;15.50;50.20;;;;;;7335685;32;20131;-58
2023/04/19 15:13:41;;;;;;;3.90;2.35;;;15.00;52.00;;;;;;7331709;32;20304;-58
2023/04/19 15:17:43;;;;;;;3.65;2.08;;;14.70;52.20;;;;;;7330445;32;20177;-58
2023/04/19 15:21:45;;;;;;;3.05;2.00;;;14.70;53.30;;;;;;7343607;32;20102;-58
2023/04/19 15:25:48;;;;;;;4.35;2.28;;;14.70;53.60;;;;;;7326904;32;20135;-58
2023/04/19 15:29:50;;;;;;;3.53;2.05;;;14.70;54.10;;;;;;7324525;32;20170;-58
2023/04/19 15:33:52;;;;;;;3.95;2.30;;;14.30;53.40;;;;;;7330985;32;20112;-58
2023/04/19 15:37:54;;;;;;;4.95;2.40;;;14.00;53.60;;;;;;7328423;32;20174;-58
2023/04/19 15:41:55;;;;;;;3.10;1.87;;;14.00;53.50;;;;;;7331784;32;20112;-58
2023/04/19 15:45:57;;;;;;;3.12;2.35;;;14.00;54.50;;;;;;7325863;32;20285;-58
2023/04/19 15:50:00;;;;;;;3.65;1.98;;;14.10;55.00;;;;;;7342064;32;20637;-58
2023/04/19 15:54:02;;;;;;;5.62;1.70;;;14.20;54.70;;;;;;7321536;32;20137;-58
2023/04/19 15:58:05;;;;;;;4.20;2.30;;;14.10;53.10;;;;;;7306914;32;20162;-58
2023/04/19 16:02:06;;;;;;;6.95;1.95;;;13.90;53.80;;;;;;7308261;32;20245;-57
2023/04/19 16:06:08;;;;;;;2.87;1.65;;;13.80;54.00;;;;;;7309458;32;20247;-57
2023/04/19 16:10:11;;;;;;;6.85;2.00;;;13.60;54.40;;;;;;7313845;32;20108;-57
2023/04/19 16:14:13;;;;;;;4.28;1.83;;;13.70;55.50;;;;;;7308024;32;20136;-58
2023/04/19 16:18:15;;;;;;;2.75;1.85;;;13.70;55.40;;;;;;7297021;32;20142;-58
2023/04/19 16:22:17;;;;;;;5.50;2.03;;;13.80;55.90;;;;;;7304107;32;20103;-58
2023/04/19 16:26:18;;;;;;;3.58;1.60;;;13.80;56.50;;;;;;7304311;32;20270;-58
2023/04/19 16:30:22;;;;;;;3.97;2.00;;;13.70;55.80;;;;;;7310336;32;20740;-58
2023/04/19 16:34:24;;;;;;;4.35;1.50;;;13.60;54.30;;;;;;7308552;32;20129;-58
2023/04/19 16:38:26;;;;;;;4.47;1.50;;;13.60;53.50;;;;;;7306556;32;20439;-58
2023/04/19 16:42:27;;;;;;;3.85;1.58;;;13.50;53.00;;;;;;7310331;32;20175;-58
2023/04/19 16:46:29;;;;;;;2.58;1.40;;;13.50;54.90;;;;;;7319527;32;20887;-58
2023/04/19 16:50:31;;;;;;;3.87;1.40;;;13.30;54.00;;;;;;7308981;32;20834;-58
2023/04/19 16:54:33;;;;;;;4.32;1.60;;;13.40;53.50;;;;;;7302526;32;20136;-58
2023/04/19 16:58:34;;;;;;;2.92;1.42;;;13.40;53.20;;;;;;7302686;32;20190;-58
2023/04/19 17:02:36;;;;;;;2.65;1.40;;;13.30;52.10;;;;;;7304357;32;20111;-57
2023/04/19 17:06:38;;;;;;;3.53;1.50;;;13.20;52.80;;;;;;7305587;32;20755;-58
2023/04/19 17:10:40;;;;;;;5.32;1.60;;;13.10;52.90;;;;;;7301583;32;20163;-58
2023/04/19 17:14:42;;;;;;;3.65;1.80;;;13.10;52.90;;;;;;7305175;32;20713;-58
2023/04/19 17:18:43;;;;;;;5.10;1.45;;;12.90;53.00;;;;;;7313078;32;20136;-57
2023/04/19 17:22:45;;;;;;;3.47;1.33;;;12.80;54.20;;;;;;7303853;32;20156;-57
2023/04/19 17:26:47;;;;;;;3.67;1.45;;;12.60;54.80;;;;;;7299008;32;20491;-58
2023/04/19 17:30:48;;;;;;;2.80;1.37;;;12.40;56.20;;;;;;7299769;32;20626;-58
2023/04/19 17:34:50;;;;;;;3.67;1.58;;;12.40;55.10;;;;;;7309459;32;20116;-58
2023/04/19 17:38:52;;;;;;;4.30;1.48;;;12.30;54.50;;;;;;7309842;32;20194;-57
2023/04/19 17:42:54;;;;;;;5.25;1.50;;;12.30;54.50;;;;;;7309010;32;20249;-58
2023/04/19 17:46:56;;;;;;;2.65;1.30;;;12.30;54.80;;;;;;7320268;32;20134;-58
2023/04/19 17:50:58;;;;;;;2.00;1.50;;;12.20;55.30;;;;;;7309609;32;20221;-57
2023/04/19 17:55:01;;;;;;;4.55;1.80;;;12.10;55.10;;;;;;7307198;32;20344;-55
2023/04/19 17:59:02;;;;;;;6.07;1.70;;;12.10;54.80;;;;;;7310457;32;20107;-56
2023/04/19 18:03:04;;;;;;;3.97;1.67;;;12.00;56.40;;;;;;7316144;32;20115;-56
2023/04/19 18:07:06;;;;;;;4.62;1.65;;;11.90;56.00;;;;;;7313612;32;20688;-57
2023/04/19 18:11:09;;;;;;;3.62;1.70;;;11.80;57.00;;;;;;7316170;32;20164;-57
2023/04/19 18:15:11;;;;;;;3.72;1.80;;;11.70;58.30;;;;;;7298018;32;20138;-56
2023/04/19 18:19:13;;;;;;;5.57;1.58;;;11.60;58.20;;;;;;7298617;32;20904;-56
2023/04/19 18:23:15;;;;;;;7.70;2.42;;;11.50;58.00;;;;;;7303143;32;20131;-56
2023/04/19 18:27:16;;;;;;;6.25;1.92;;;11.50;59.20;;;;;;7303139;32;20279;-55
2023/04/19 18:31:18;;;;;;;4.62;2.20;;;11.40;58.60;;;;;;7299740;32;20213;-55
2023/04/19 18:35:20;;;;;;;5.57;2.70;;;11.30;58.90;;;;;;7303724;32;20138;-55
2023/04/19 18:39:22;;;;;;;5.35;2.45;;;11.20;59.90;;;;;;7296211;32;20168;-57
2023/04/19 18:43:24;;;;;;;3.78;2.10;;;11.10;60.50;;;;;;7301133;32;20112;-55
2023/04/19 18:47:26;;;;;;;4.70;2.35;;;11.00;60.50;;;;;;7304271;32;20274;-55
2023/04/19 18:51:28;;;;;;;6.90;2.45;;;11.00;59.90;;;;;;7304619;32;20568;-56
2023/04/19 18:55:30;;;;;;;6.90;2.40;;;10.90;61.30;;;;;;7302909;32;20602;-56
2023/04/19 18:59:32;;;;;;;2.75;2.15;;;10.70;62.30;;;;;;7295762;32;20116;-56
2023/04/19 19:03:34;;;;;;;4.10;2.30;;;10.70;62.20;;;;;;7297154;32;20134;-56
2023/04/19 19:07:40;;;;;;;5.30;2.60;;;10.60;63.50;;;;;;7299463;32;20238;-56
2023/04/19 19:11:42;;;;;;;6.70;2.40;;;10.50;64.00;;;;;;7300045;32;20112;-56
2023/04/19 19:15:57;;;;;;;11.12;2.70;;;10.40;64.60;;;;;;7304427;32;20195;-55
2023/04/19 19:20:00;;;;;;;8.80;2.83;;;10.30;64.50;;;;;;7306926;32;20211;-56
2023/04/19 19:24:03;;;;;;;6.50;2.58;;;10.30;65.10;;;;;;7307980;32;20131;-55
2023/04/19 19:28:05;;;;;;;4.93;2.72;;;10.10;66.10;;;;;;7299557;32;20286;-56
2023/04/19 19:32:10;;;;;;;3.85;2.58;;;10.00;68.00;;;;;;7302660;32;20558;-56
2023/04/19 19:36:12;;;;;;;7.20;2.78;;;10.00;67.00;;;;;;7298484;32;20185;-56
2023/04/19 19:40:14;;;;;;;7.40;2.75;;;9.90;68.00;;;;;;7304439;32;20150;-56
2023/04/19 19:44:16;;;;;;;4.65;2.67;;;9.90;68.60;;;;;;7303716;32;20151;-56
2023/04/19 19:48:17;;;;;;;4.90;2.78;;;9.80;69.10;;;;;;7306271;32;21060;-55
2023/04/19 19:52:20;;;;;;;9.30;2.50;;;9.70;70.00;;;;;;7311303;32;20277;-56
2023/04/19 19:56:22;;;;;;;3.83;2.45;;;9.60;71.30;;;;;;7319965;32;20119;-56
2023/04/19 20:00:25;;;;;;;6.70;2.78;;;9.40;72.30;;;;;;7311420;32;20718;-56
2023/04/19 20:04:30;;;;;;;5.10;2.65;;;9.30;72.70;;;;;;7311718;32;20312;-55
2023/04/19 20:08:32;;;;;;;7.10;3.28;;;9.30;74.10;;;;;;7312754;32;20116;-55
2023/04/19 20:12:34;;;;;;;4.10;2.50;;;9.30;73.90;;;;;;7318786;32;20239;-55
2023/04/19 20:16:36;;;;;;;4.55;2.70;;;9.30;74.90;;;;;;7306906;32;20651;-55
2023/04/19 20:20:38;;;;;;;6.10;2.60;;;9.20;78.10;;;;;;7306437;32;20163;-56
2023/04/19 20:24:41;;;;;;;6.22;3.03;;;9.20;75.90;;;;;;7307422;32;20131;-55
2023/04/19 20:28:43;;;;;;;5.22;2.70;;;9.20;76.10;;;;;;7298891;32;20284;-55
2023/04/19 20:32:44;;;;;;;6.22;2.90;;;9.00;78.00;;;;;;7306447;32;20135;-54
2023/04/19 20:36:46;;;;;;;9.13;2.92;;;9.00;80.40;;;;;;7305823;32;20271;-55
2023/04/19 20:40:48;;;;;;;4.47;2.60;;;8.80;80.30;;;;;;7308731;32;20140;-55
2023/04/19 20:44:50;;;;;;;5.55;2.70;;;8.80;81.80;;;;;;7309022;32;20133;-54
2023/04/19 20:48:52;;;;;;;4.85;2.67;;;8.70;81.70;;;;;;7308022;32;20111;-54
2023/04/19 20:52:54;;;;;;;6.37;2.70;;;8.60;83.30;;;;;;7309840;32;20281;-54
2023/04/19 20:57:00;;;;;;;4.72;2.92;;;8.50;86.70;;;;;;7308739;32;20754;-55
2023/04/19 21:01:02;;;;;;;4.47;2.95;;;8.30;87.10;;;;;;7312454;32;20119;-54